Terminal Aerodrome Forecast
Issued by NWS Dodge City, KS

Home | Current Version | Previous Version | Text Only | Print | Product List | Glossary On
Versions: 1 2 3 4 5 6 7 8 9 10 11 12 13 14 15 16 17 18 19 20 21 22 23 24 25 26 27 28 29 30 31 32 33 34 35 36 37 38 39 40
000
FTUS43 KDDC 202343 AAD
TAFDDC
TAF AMD
KDDC 202343Z 2100/2124 09013KT P6SM -SHRA OVC060
     FM210300 09010KT P6SM OVC045
      TEMPO 2103/2105 4SM -TSRA OVC015CB
     FM210500 12010KT P6SM OVC015
      TEMPO 2105/2109 6SM -SHRA OVC008
     FM211000 11010KT 6SM -SHRA OVC008 PROB30 2111/2112 4SM -SHRA
      OVC004
     FM211200 09010KT P6SM OVC004 PROB30 2112/2116 4SM -SHRA OVC006
     FM211600 07010KT P6SM OVC008 PROB30 2116/2118 4SM -SHRA SCT008
      OVC015=

USA.gov is the U.S. government's official web portal to all federal, state and local government web resources and services.